sensor_id;sensor_type;location;lat;lon;timestamp;P1;durP1;ratioP1;P2;durP2;ratioP2
24084;SDS011;12268;52.110;5.548;2024-02-15T00:00:39;40.45;;;18.90;;
24084;SDS011;12268;52.110;5.548;2024-02-15T00:03:05;33.10;;;16.75;;
24084;SDS011;12268;52.110;5.548;2024-02-15T00:05:33;35.80;;;16.25;;
24084;SDS011;12268;52.110;5.548;2024-02-15T00:08:02;33.90;;;17.33;;
24084;SDS011;12268;52.110;5.548;2024-02-15T00:10:28;36.40;;;17.73;;
24084;SDS011;12268;52.110;5.548;2024-02-15T00:12:53;35.65;;;16.60;;
24084;SDS011;12268;52.110;5.548;2024-02-15T00:15:19;30.13;;;15.77;;
24084;SDS011;12268;52.110;5.548;2024-02-15T00:17:44;27.70;;;15.02;;
24084;SDS011;12268;52.110;5.548;2024-02-15T00:20:11;36.75;;;15.52;;
24084;SDS011;12268;52.110;5.548;2024-02-15T00:22:38;29.33;;;15.60;;
24084;SDS011;12268;52.110;5.548;2024-02-15T00:25:06;26.80;;;14.13;;
24084;SDS011;12268;52.110;5.548;2024-02-15T00:27:33;28.23;;;14.48;;
24084;SDS011;12268;52.110;5.548;2024-02-15T00:30:00;26.52;;;14.45;;
24084;SDS011;12268;52.110;5.548;2024-02-15T00:32:26;28.98;;;14.45;;
24084;SDS011;12268;52.110;5.548;2024-02-15T00:34:51;26.17;;;13.98;;
24084;SDS011;12268;52.110;5.548;2024-02-15T00:37:17;29.33;;;14.82;;
24084;SDS011;12268;52.110;5.548;2024-02-15T00:39:42;30.67;;;14.45;;
24084;SDS011;12268;52.110;5.548;2024-02-15T00:42:08;29.95;;;13.82;;
24084;SDS011;12268;52.110;5.548;2024-02-15T00:44:34;27.88;;;13.52;;
24084;SDS011;12268;52.110;5.548;2024-02-15T00:47:00;30.27;;;14.57;;
24084;SDS011;12268;52.110;5.548;2024-02-15T00:49:25;33.38;;;15.00;;
24084;SDS011;12268;52.110;5.548;2024-02-15T00:51:52;28.05;;;14.32;;
24084;SDS011;12268;52.110;5.548;2024-02-15T00:54:18;28.58;;;13.68;;
24084;SDS011;12268;52.110;5.548;2024-02-15T00:56:44;33.95;;;15.18;;
24084;SDS011;12268;52.110;5.548;2024-02-15T00:59:09;26.73;;;14.15;;
24084;SDS011;12268;52.110;5.548;2024-02-15T01:01:35;29.58;;;14.05;;
24084;SDS011;12268;52.110;5.548;2024-02-15T01:04:03;28.20;;;14.98;;
24084;SDS011;12268;52.110;5.548;2024-02-15T01:06:29;29.20;;;14.38;;
24084;SDS011;12268;52.110;5.548;2024-02-15T01:08:54;29.55;;;16.17;;
24084;SDS011;12268;52.110;5.548;2024-02-15T01:11:20;28.13;;;14.73;;
24084;SDS011;12268;52.110;5.548;2024-02-15T01:13:46;26.52;;;14.25;;
24084;SDS011;12268;52.110;5.548;2024-02-15T01:16:11;30.42;;;15.25;;
24084;SDS011;12268;52.110;5.548;2024-02-15T01:18:37;32.58;;;18.20;;
24084;SDS011;12268;52.110;5.548;2024-02-15T01:21:03;31.77;;;18.10;;
24084;SDS011;12268;52.110;5.548;2024-02-15T01:23:29;33.80;;;18.63;;
24084;SDS011;12268;52.110;5.548;2024-02-15T01:25:55;38.30;;;19.80;;
24084;SDS011;12268;52.110;5.548;2024-02-15T01:28:20;35.00;;;21.20;;
24084;SDS011;12268;52.110;5.548;2024-02-15T01:30:47;40.90;;;23.70;;
24084;SDS011;12268;52.110;5.548;2024-02-15T01:33:12;42.83;;;23.95;;
24084;SDS011;12268;52.110;5.548;2024-02-15T01:35:38;45.63;;;24.98;;
24084;SDS011;12268;52.110;5.548;2024-02-15T01:38:05;53.83;;;26.50;;
24084;SDS011;12268;52.110;5.548;2024-02-15T01:40:31;52.67;;;26.83;;
24084;SDS011;12268;52.110;5.548;2024-02-15T01:42:56;46.92;;;26.55;;
24084;SDS011;12268;52.110;5.548;2024-02-15T01:45:23;51.42;;;27.55;;
24084;SDS011;12268;52.110;5.548;2024-02-15T01:47:50;49.45;;;27.33;;
24084;SDS011;12268;52.110;5.548;2024-02-15T01:50:17;50.92;;;26.90;;
24084;SDS011;12268;52.110;5.548;2024-02-15T01:52:43;49.17;;;27.77;;
24084;SDS011;12268;52.110;5.548;2024-02-15T01:55:12;57.67;;;27.88;;
24084;SDS011;12268;52.110;5.548;2024-02-15T01:57:40;45.17;;;26.25;;
24084;SDS011;12268;52.110;5.548;2024-02-15T02:00:13;46.70;;;26.25;;
24084;SDS011;12268;52.110;5.548;2024-02-15T05:14:14;29.20;;;10.98;;
24084;SDS011;12268;52.110;5.548;2024-02-15T05:16:49;25.90;;;11.93;;
24084;SDS011;12268;52.110;5.548;2024-02-15T05:19:18;26.50;;;10.88;;
24084;SDS011;12268;52.110;5.548;2024-02-15T05:21:44;28.08;;;11.90;;
24084;SDS011;12268;52.110;5.548;2024-02-15T05:24:14;24.05;;;12.00;;
24084;SDS011;12268;52.110;5.548;2024-02-15T05:26:40;23.65;;;11.85;;
24084;SDS011;12268;52.110;5.548;2024-02-15T05:29:12;26.17;;;11.05;;
24084;SDS011;12268;52.110;5.548;2024-02-15T05:31:38;19.48;;;12.02;;
24084;SDS011;12268;52.110;5.548;2024-02-15T05:50:24;23.58;;;11.52;;
24084;SDS011;12268;52.110;5.548;2024-02-15T05:52:52;21.88;;;11.35;;
24084;SDS011;12268;52.110;5.548;2024-02-15T05:55:20;19.38;;;11.45;;
24084;SDS011;12268;52.110;5.548;2024-02-15T05:57:45;23.55;;;11.45;;
24084;SDS011;12268;52.110;5.548;2024-02-15T06:00:11;19.08;;;12.50;;
24084;SDS011;12268;52.110;5.548;2024-02-15T06:02:37;21.17;;;11.93;;
24084;SDS011;12268;52.110;5.548;2024-02-15T06:05:03;21.67;;;11.48;;
24084;SDS011;12268;52.110;5.548;2024-02-15T06:07:30;29.95;;;12.45;;
24084;SDS011;12268;52.110;5.548;2024-02-15T06:09:59;24.63;;;12.18;;
24084;SDS011;12268;52.110;5.548;2024-02-15T07:22:30;26.00;;;14.00;;
24084;SDS011;12268;52.110;5.548;2024-02-15T07:24:57;26.77;;;14.20;;
24084;SDS011;12268;52.110;5.548;2024-02-15T07:27:22;26.83;;;14.20;;
24084;SDS011;12268;52.110;5.548;2024-02-15T07:29:51;21.83;;;14.02;;
24084;SDS011;12268;52.110;5.548;2024-02-15T07:32:16;28.67;;;14.43;;
24084;SDS011;12268;52.110;5.548;2024-02-15T07:34:43;22.00;;;14.10;;
24084;SDS011;12268;52.110;5.548;2024-02-15T07:37:10;24.40;;;14.50;;
24084;SDS011;12268;52.110;5.548;2024-02-15T07:39:37;20.35;;;12.88;;
24084;SDS011;12268;52.110;5.548;2024-02-15T07:52:24;23.75;;;12.93;;
24084;SDS011;12268;52.110;5.548;2024-02-15T07:54:50;21.52;;;12.75;;
24084;SDS011;12268;52.110;5.548;2024-02-15T07:57:17;20.27;;;12.82;;
24084;SDS011;12268;52.110;5.548;2024-02-15T07:59:43;20.60;;;12.32;;
24084;SDS011;12268;52.110;5.548;2024-02-15T08:02:09;19.38;;;10.55;;
24084;SDS011;12268;52.110;5.548;2024-02-15T08:04:37;16.02;;;11.38;;
24084;SDS011;12268;52.110;5.548;2024-02-15T08:09:43;22.85;;;11.93;;
24084;SDS011;12268;52.110;5.548;2024-02-15T08:12:09;16.92;;;11.10;;
24084;SDS011;12268;52.110;5.548;2024-02-15T08:14:35;16.60;;;10.60;;
24084;SDS011;12268;52.110;5.548;2024-02-15T08:17:00;15.63;;;10.55;;
24084;SDS011;12268;52.110;5.548;2024-02-15T08:19:27;17.40;;;10.27;;
24084;SDS011;12268;52.110;5.548;2024-02-15T08:21:54;17.35;;;9.75;;
24084;SDS011;12268;52.110;5.548;2024-02-15T08:24:19;14.05;;;9.75;;
24084;SDS011;12268;52.110;5.548;2024-02-15T08:26:45;12.95;;;8.35;;
24084;SDS011;12268;52.110;5.548;2024-02-15T08:29:12;14.27;;;8.75;;
24084;SDS011;12268;52.110;5.548;2024-02-15T08:31:39;12.02;;;8.38;;
24084;SDS011;12268;52.110;5.548;2024-02-15T08:34:06;15.43;;;8.23;;
24084;SDS011;12268;52.110;5.548;2024-02-15T08:36:35;15.32;;;8.60;;
24084;SDS011;12268;52.110;5.548;2024-02-15T08:39:04;10.23;;;7.35;;
24084;SDS011;12268;52.110;5.548;2024-02-15T08:41:30;11.93;;;8.10;;
24084;SDS011;12268;52.110;5.548;2024-02-15T08:43:56;8.13;;;6.28;;
24084;SDS011;12268;52.110;5.548;2024-02-15T08:46:23;10.90;;;7.45;;
24084;SDS011;12268;52.110;5.548;2024-02-15T08:48:50;11.65;;;7.75;;
24084;SDS011;12268;52.110;5.548;2024-02-15T08:51:16;10.52;;;7.10;;
24084;SDS011;12268;52.110;5.548;2024-02-15T08:53:42;11.85;;;6.78;;
24084;SDS011;12268;52.110;5.548;2024-02-15T08:56:08;9.48;;;6.00;;
24084;SDS011;12268;52.110;5.548;2024-02-15T08:58:35;7.43;;;5.55;;
24084;SDS011;12268;52.110;5.548;2024-02-15T09:01:00;9.43;;;6.53;;
24084;SDS011;12268;52.110;5.548;2024-02-15T09:03:28;9.38;;;5.97;;
24084;SDS011;12268;52.110;5.548;2024-02-15T09:05:53;6.35;;;4.78;;
24084;SDS011;12268;52.110;5.548;2024-02-15T09:08:19;11.25;;;5.60;;
24084;SDS011;12268;52.110;5.548;2024-02-15T09:10:46;9.60;;;4.90;;
24084;SDS011;12268;52.110;5.548;2024-02-15T09:13:12;6.85;;;4.63;;
24084;SDS011;12268;52.110;5.548;2024-02-15T09:15:39;8.50;;;5.55;;
24084;SDS011;12268;52.110;5.548;2024-02-15T09:18:06;6.55;;;5.15;;
24084;SDS011;12268;52.110;5.548;2024-02-15T09:20:34;8.40;;;5.18;;
24084;SDS011;12268;52.110;5.548;2024-02-15T09:23:02;7.63;;;4.78;;
24084;SDS011;12268;52.110;5.548;2024-02-15T09:25:34;9.00;;;5.20;;
24084;SDS011;12268;52.110;5.548;2024-02-15T09:28:03;7.95;;;5.00;;
24084;SDS011;12268;52.110;5.548;2024-02-15T09:30:29;8.15;;;5.25;;
24084;SDS011;12268;52.110;5.548;2024-02-15T09:32:56;6.72;;;4.55;;
24084;SDS011;12268;52.110;5.548;2024-02-15T09:35:22;9.52;;;4.95;;
24084;SDS011;12268;52.110;5.548;2024-02-15T09:37:48;11.55;;;5.28;;
24084;SDS011;12268;52.110;5.548;2024-02-15T09:40:14;9.07;;;5.45;;
24084;SDS011;12268;52.110;5.548;2024-02-15T09:42:43;9.80;;;5.20;;
24084;SDS011;12268;52.110;5.548;2024-02-15T09:45:10;11.65;;;5.60;;
24084;SDS011;12268;52.110;5.548;2024-02-15T09:47:38;8.98;;;5.68;;
24084;SDS011;12268;52.110;5.548;2024-02-15T09:50:07;14.00;;;6.32;;
24084;SDS011;12268;52.110;5.548;2024-02-15T09:52:33;16.10;;;6.78;;
24084;SDS011;12268;52.110;5.548;2024-02-15T09:55:02;14.43;;;7.53;;
24084;SDS011;12268;52.110;5.548;2024-02-15T09:57:29;15.15;;;6.63;;
24084;SDS011;12268;52.110;5.548;2024-02-15T09:59:57;13.82;;;6.72;;
24084;SDS011;12268;52.110;5.548;2024-02-15T10:02:24;18.33;;;7.18;;
24084;SDS011;12268;52.110;5.548;2024-02-15T10:04:51;18.10;;;8.25;;
24084;SDS011;12268;52.110;5.548;2024-02-15T10:07:21;22.40;;;7.97;;
24084;SDS011;12268;52.110;5.548;2024-02-15T10:09:51;17.92;;;8.50;;
24084;SDS011;12268;52.110;5.548;2024-02-15T10:12:17;15.48;;;8.43;;
24084;SDS011;12268;52.110;5.548;2024-02-15T10:14:49;17.30;;;8.27;;
24084;SDS011;12268;52.110;5.548;2024-02-15T10:17:17;14.82;;;8.55;;
24084;SDS011;12268;52.110;5.548;2024-02-15T10:19:44;19.30;;;8.57;;
24084;SDS011;12268;52.110;5.548;2024-02-15T10:22:12;17.25;;;8.07;;
24084;SDS011;12268;52.110;5.548;2024-02-15T10:24:39;18.23;;;8.35;;
24084;SDS011;12268;52.110;5.548;2024-02-15T10:27:06;15.70;;;7.68;;
24084;SDS011;12268;52.110;5.548;2024-02-15T10:29:32;14.57;;;8.18;;
24084;SDS011;12268;52.110;5.548;2024-02-15T10:32:03;13.77;;;8.38;;
24084;SDS011;12268;52.110;5.548;2024-02-15T10:34:29;18.23;;;8.02;;
24084;SDS011;12268;52.110;5.548;2024-02-15T10:37:11;17.02;;;8.30;;
24084;SDS011;12268;52.110;5.548;2024-02-15T10:39:44;15.25;;;8.40;;
24084;SDS011;12268;52.110;5.548;2024-02-15T10:42:10;13.35;;;8.25;;
24084;SDS011;12268;52.110;5.548;2024-02-15T10:44:36;15.18;;;8.10;;
24084;SDS011;12268;52.110;5.548;2024-02-15T10:47:03;15.80;;;7.82;;
24084;SDS011;12268;52.110;5.548;2024-02-15T10:49:32;15.88;;;8.07;;
24084;SDS011;12268;52.110;5.548;2024-02-15T10:51:59;17.10;;;7.50;;
24084;SDS011;12268;52.110;5.548;2024-02-15T10:54:52;20.80;;;8.20;;
24084;SDS011;12268;52.110;5.548;2024-02-15T10:57:22;13.27;;;8.77;;
24084;SDS011;12268;52.110;5.548;2024-02-15T10:59:54;12.73;;;8.20;;
24084;SDS011;12268;52.110;5.548;2024-02-15T11:02:50;13.90;;;8.50;;
24084;SDS011;12268;52.110;5.548;2024-02-15T11:05:31;18.13;;;8.55;;
24084;SDS011;12268;52.110;5.548;2024-02-15T11:08:00;14.85;;;8.57;;
24084;SDS011;12268;52.110;5.548;2024-02-15T11:10:33;18.48;;;8.52;;
24084;SDS011;12268;52.110;5.548;2024-02-15T11:13:00;18.23;;;8.40;;
24084;SDS011;12268;52.110;5.548;2024-02-15T11:15:45;16.30;;;8.45;;
24084;SDS011;12268;52.110;5.548;2024-02-15T11:21:10;13.60;;;8.00;;
24084;SDS011;12268;52.110;5.548;2024-02-15T11:23:36;17.88;;;8.75;;
24084;SDS011;12268;52.110;5.548;2024-02-15T11:26:02;16.13;;;9.02;;
24084;SDS011;12268;52.110;5.548;2024-02-15T11:30:55;14.82;;;8.38;;
24084;SDS011;12268;52.110;5.548;2024-02-15T11:33:27;17.77;;;8.20;;
24084;SDS011;12268;52.110;5.548;2024-02-15T11:36:09;17.70;;;8.27;;
24084;SDS011;12268;52.110;5.548;2024-02-15T11:38:36;11.52;;;7.13;;
24084;SDS011;12268;52.110;5.548;2024-02-15T11:41:06;14.70;;;8.32;;
24084;SDS011;12268;52.110;5.548;2024-02-15T11:46:11;12.63;;;7.35;;
24084;SDS011;12268;52.110;5.548;2024-02-15T11:48:43;12.68;;;7.45;;
24084;SDS011;12268;52.110;5.548;2024-02-15T11:51:25;15.38;;;7.60;;
24084;SDS011;12268;52.110;5.548;2024-02-15T11:54:07;15.23;;;7.53;;
24084;SDS011;12268;52.110;5.548;2024-02-15T11:59:19;14.93;;;7.75;;
24084;SDS011;12268;52.110;5.548;2024-02-15T12:01:56;17.40;;;7.47;;
24084;SDS011;12268;52.110;5.548;2024-02-15T12:04:41;16.25;;;7.38;;
24084;SDS011;12268;52.110;5.548;2024-02-15T12:07:27;13.48;;;7.18;;
24084;SDS011;12268;52.110;5.548;2024-02-15T12:10:15;16.50;;;8.00;;
24084;SDS011;12268;52.110;5.548;2024-02-15T12:13:00;17.58;;;7.93;;
24084;SDS011;12268;52.110;5.548;2024-02-15T12:15:55;13.70;;;7.43;;
24084;SDS011;12268;52.110;5.548;2024-02-15T12:18:43;12.95;;;7.25;;
24084;SDS011;12268;52.110;5.548;2024-02-15T12:21:13;13.95;;;7.45;;
24084;SDS011;12268;52.110;5.548;2024-02-15T12:23:42;11.88;;;7.95;;
24084;SDS011;12268;52.110;5.548;2024-02-15T12:26:08;12.30;;;7.80;;
24084;SDS011;12268;52.110;5.548;2024-02-15T12:28:34;12.48;;;7.30;;
24084;SDS011;12268;52.110;5.548;2024-02-15T12:31:00;16.15;;;7.88;;
24084;SDS011;12268;52.110;5.548;2024-02-15T12:33:27;12.13;;;7.43;;
24084;SDS011;12268;52.110;5.548;2024-02-15T12:36:05;14.25;;;7.68;;
24084;SDS011;12268;52.110;5.548;2024-02-15T12:38:31;12.02;;;7.53;;
24084;SDS011;12268;52.110;5.548;2024-02-15T12:40:59;10.15;;;7.32;;
24084;SDS011;12268;52.110;5.548;2024-02-15T12:43:25;14.35;;;6.72;;
24084;SDS011;12268;52.110;5.548;2024-02-15T12:45:51;11.63;;;5.80;;
24084;SDS011;12268;52.110;5.548;2024-02-15T12:48:19;10.57;;;6.00;;
24084;SDS011;12268;52.110;5.548;2024-02-15T12:50:45;10.25;;;5.68;;
24084;SDS011;12268;52.110;5.548;2024-02-15T12:53:11;10.02;;;5.88;;
24084;SDS011;12268;52.110;5.548;2024-02-15T12:55:37;11.40;;;5.57;;
24084;SDS011;12268;52.110;5.548;2024-02-15T12:58:05;11.80;;;5.28;;
24084;SDS011;12268;52.110;5.548;2024-02-15T13:00:39;12.80;;;5.68;;
24084;SDS011;12268;52.110;5.548;2024-02-15T13:03:06;10.98;;;5.30;;
24084;SDS011;12268;52.110;5.548;2024-02-15T13:05:36;11.65;;;5.13;;
24084;SDS011;12268;52.110;5.548;2024-02-15T13:08:02;10.20;;;5.45;;
24084;SDS011;12268;52.110;5.548;2024-02-15T13:10:38;11.13;;;5.28;;
24084;SDS011;12268;52.110;5.548;2024-02-15T13:13:06;8.73;;;5.45;;
24084;SDS011;12268;52.110;5.548;2024-02-15T13:15:34;7.75;;;4.65;;
24084;SDS011;12268;52.110;5.548;2024-02-15T13:18:01;10.35;;;4.60;;
24084;SDS011;12268;52.110;5.548;2024-02-15T13:20:29;7.60;;;4.28;;
24084;SDS011;12268;52.110;5.548;2024-02-15T13:22:57;7.25;;;4.43;;
24084;SDS011;12268;52.110;5.548;2024-02-15T13:25:27;11.07;;;4.38;;
24084;SDS011;12268;52.110;5.548;2024-02-15T13:27:56;9.48;;;5.20;;
24084;SDS011;12268;52.110;5.548;2024-02-15T13:30:24;7.82;;;4.13;;
24084;SDS011;12268;52.110;5.548;2024-02-15T13:32:52;8.93;;;4.60;;
24084;SDS011;12268;52.110;5.548;2024-02-15T13:35:21;8.40;;;4.50;;
24084;SDS011;12268;52.110;5.548;2024-02-15T13:40:15;9.63;;;4.57;;
24084;SDS011;12268;52.110;5.548;2024-02-15T13:42:44;11.18;;;5.05;;
24084;SDS011;12268;52.110;5.548;2024-02-15T13:45:23;8.48;;;5.18;;
24084;SDS011;12268;52.110;5.548;2024-02-15T13:47:50;9.48;;;4.22;;
24084;SDS011;12268;52.110;5.548;2024-02-15T13:50:17;11.65;;;4.85;;
24084;SDS011;12268;52.110;5.548;2024-02-15T13:52:43;9.75;;;5.22;;
24084;SDS011;12268;52.110;5.548;2024-02-15T13:55:10;11.98;;;4.72;;
24084;SDS011;12268;52.110;5.548;2024-02-15T13:57:37;6.95;;;4.28;;
24084;SDS011;12268;52.110;5.548;2024-02-15T14:00:04;8.65;;;4.85;;
24084;SDS011;12268;52.110;5.548;2024-02-15T14:02:31;8.18;;;4.10;;
24084;SDS011;12268;52.110;5.548;2024-02-15T14:04:56;7.35;;;4.25;;
24084;SDS011;12268;52.110;5.548;2024-02-15T14:07:22;13.80;;;4.65;;
24084;SDS011;12268;52.110;5.548;2024-02-15T14:09:47;9.55;;;4.88;;
24084;SDS011;12268;52.110;5.548;2024-02-15T14:12:13;6.50;;;3.92;;
24084;SDS011;12268;52.110;5.548;2024-02-15T15:27:55;9.05;;;5.63;;
24084;SDS011;12268;52.110;5.548;2024-02-15T15:30:21;8.30;;;5.78;;
24084;SDS011;12268;52.110;5.548;2024-02-15T15:32:47;12.35;;;6.43;;
24084;SDS011;12268;52.110;5.548;2024-02-15T15:35:14;10.73;;;6.50;;
24084;SDS011;12268;52.110;5.548;2024-02-15T15:37:42;10.80;;;5.97;;
24084;SDS011;12268;52.110;5.548;2024-02-15T15:40:09;10.85;;;5.88;;
24084;SDS011;12268;52.110;5.548;2024-02-15T15:42:36;10.45;;;5.78;;
24084;SDS011;12268;52.110;5.548;2024-02-15T15:45:03;10.88;;;6.38;;
24084;SDS011;12268;52.110;5.548;2024-02-15T17:57:36;6.63;;;4.45;;
24084;SDS011;12268;52.110;5.548;2024-02-15T18:00:04;6.32;;;3.92;;
24084;SDS011;12268;52.110;5.548;2024-02-15T18:02:31;8.32;;;4.10;;
24084;SDS011;12268;52.110;5.548;2024-02-15T18:05:00;7.80;;;4.63;;
24084;SDS011;12268;52.110;5.548;2024-02-15T18:07:26;7.82;;;4.38;;
24084;SDS011;12268;52.110;5.548;2024-02-15T18:09:54;6.78;;;4.22;;
24084;SDS011;12268;52.110;5.548;2024-02-15T18:12:25;7.28;;;4.22;;
24084;SDS011;12268;52.110;5.548;2024-02-15T18:14:52;7.47;;;4.55;;
24084;SDS011;12268;52.110;5.548;2024-02-15T18:17:18;14.05;;;5.03;;
24084;SDS011;12268;52.110;5.548;2024-02-15T19:29:38;6.13;;;3.63;;
24084;SDS011;12268;52.110;5.548;2024-02-15T19:32:05;7.90;;;3.60;;
24084;SDS011;12268;52.110;5.548;2024-02-15T19:34:31;9.45;;;3.63;;
24084;SDS011;12268;52.110;5.548;2024-02-15T19:36:56;7.50;;;3.90;;
24084;SDS011;12268;52.110;5.548;2024-02-15T19:39:26;7.05;;;3.70;;
24084;SDS011;12268;52.110;5.548;2024-02-15T19:41:52;8.18;;;4.10;;
24084;SDS011;12268;52.110;5.548;2024-02-15T19:44:19;5.13;;;3.40;;
24084;SDS011;12268;52.110;5.548;2024-02-15T19:46:45;6.63;;;3.67;;
24084;SDS011;12268;52.110;5.548;2024-02-15T19:49:12;6.10;;;3.83;;
24084;SDS011;12268;52.110;5.548;2024-02-15T19:51:37;8.48;;;3.85;;
24084;SDS011;12268;52.110;5.548;2024-02-15T19:54:04;7.45;;;3.33;;
24084;SDS011;12268;52.110;5.548;2024-02-15T19:56:30;5.28;;;3.25;;
24084;SDS011;12268;52.110;5.548;2024-02-15T19:58:59;6.13;;;3.58;;
24084;SDS011;12268;52.110;5.548;2024-02-15T20:01:26;10.25;;;4.10;;
24084;SDS011;12268;52.110;5.548;2024-02-15T20:03:52;8.00;;;3.97;;
24084;SDS011;12268;52.110;5.548;2024-02-15T20:06:21;9.77;;;3.63;;
24084;SDS011;12268;52.110;5.548;2024-02-15T20:08:52;9.10;;;3.58;;
24084;SDS011;12268;52.110;5.548;2024-02-15T20:11:18;9.23;;;3.42;;
24084;SDS011;12268;52.110;5.548;2024-02-15T20:13:48;7.68;;;3.63;;
24084;SDS011;12268;52.110;5.548;2024-02-15T20:16:16;5.82;;;3.60;;
24084;SDS011;12268;52.110;5.548;2024-02-15T20:18:46;7.15;;;3.75;;
24084;SDS011;12268;52.110;5.548;2024-02-15T20:21:15;6.25;;;3.65;;
24084;SDS011;12268;52.110;5.548;2024-02-15T20:23:43;5.82;;;3.95;;
24084;SDS011;12268;52.110;5.548;2024-02-15T20:26:13;8.00;;;3.70;;
24084;SDS011;12268;52.110;5.548;2024-02-15T20:28:40;4.43;;;3.30;;
24084;SDS011;12268;52.110;5.548;2024-02-15T20:31:09;7.88;;;3.72;;
24084;SDS011;12268;52.110;5.548;2024-02-15T20:33:35;6.85;;;3.33;;
24084;SDS011;12268;52.110;5.548;2024-02-15T20:36:03;6.60;;;3.50;;
24084;SDS011;12268;52.110;5.548;2024-02-15T20:38:29;6.65;;;3.90;;
24084;SDS011;12268;52.110;5.548;2024-02-15T20:40:55;7.78;;;3.60;;
24084;SDS011;12268;52.110;5.548;2024-02-15T20:43:26;6.22;;;3.60;;
24084;SDS011;12268;52.110;5.548;2024-02-15T20:45:53;6.35;;;3.70;;
24084;SDS011;12268;52.110;5.548;2024-02-15T20:48:22;7.07;;;3.78;;
24084;SDS011;12268;52.110;5.548;2024-02-15T20:50:51;12.13;;;3.65;;
24084;SDS011;12268;52.110;5.548;2024-02-15T20:53:16;7.00;;;3.88;;
24084;SDS011;12268;52.110;5.548;2024-02-15T20:55:42;11.27;;;3.92;;
24084;SDS011;12268;52.110;5.548;2024-02-15T20:58:08;6.88;;;4.03;;
24084;SDS011;12268;52.110;5.548;2024-02-15T21:00:33;7.22;;;4.00;;
24084;SDS011;12268;52.110;5.548;2024-02-15T21:02:59;7.78;;;4.00;;
24084;SDS011;12268;52.110;5.548;2024-02-15T21:05:28;7.07;;;4.60;;
24084;SDS011;12268;52.110;5.548;2024-02-15T21:07:54;7.70;;;4.43;;
24084;SDS011;12268;52.110;5.548;2024-02-15T21:10:20;8.02;;;4.85;;
24084;SDS011;12268;52.110;5.548;2024-02-15T21:12:47;7.28;;;5.00;;
24084;SDS011;12268;52.110;5.548;2024-02-15T21:15:13;7.72;;;4.53;;
24084;SDS011;12268;52.110;5.548;2024-02-15T21:17:42;5.78;;;4.13;;
24084;SDS011;12268;52.110;5.548;2024-02-15T21:20:10;8.45;;;3.80;;
24084;SDS011;12268;52.110;5.548;2024-02-15T21:22:43;7.00;;;4.57;;
24084;SDS011;12268;52.110;5.548;2024-02-15T21:25:10;7.07;;;4.10;;
24084;SDS011;12268;52.110;5.548;2024-02-15T21:27:37;10.02;;;4.40;;
24084;SDS011;12268;52.110;5.548;2024-02-15T21:30:03;7.30;;;3.92;;
24084;SDS011;12268;52.110;5.548;2024-02-15T21:32:33;9.32;;;3.63;;
24084;SDS011;12268;52.110;5.548;2024-02-15T21:35:00;5.45;;;3.70;;
24084;SDS011;12268;52.110;5.548;2024-02-15T21:37:26;13.65;;;4.30;;
24084;SDS011;12268;52.110;5.548;2024-02-15T21:39:51;8.73;;;4.30;;
24084;SDS011;12268;52.110;5.548;2024-02-15T21:42:17;6.53;;;4.13;;
24084;SDS011;12268;52.110;5.548;2024-02-15T21:44:45;7.55;;;4.40;;
24084;SDS011;12268;52.110;5.548;2024-02-15T21:47:12;7.65;;;4.68;;
24084;SDS011;12268;52.110;5.548;2024-02-15T21:49:40;9.85;;;4.35;;
24084;SDS011;12268;52.110;5.548;2024-02-15T21:52:06;7.32;;;4.57;;
24084;SDS011;12268;52.110;5.548;2024-02-15T21:54:34;8.02;;;4.38;;
24084;SDS011;12268;52.110;5.548;2024-02-15T21:57:04;9.40;;;4.88;;
24084;SDS011;12268;52.110;5.548;2024-02-15T21:59:32;5.93;;;4.32;;
24084;SDS011;12268;52.110;5.548;2024-02-15T22:01:58;10.50;;;4.55;;
24084;SDS011;12268;52.110;5.548;2024-02-15T22:04:25;6.13;;;4.60;;
24084;SDS011;12268;52.110;5.548;2024-02-15T22:06:50;6.22;;;4.22;;
24084;SDS011;12268;52.110;5.548;2024-02-15T22:09:16;7.78;;;4.30;;
24084;SDS011;12268;52.110;5.548;2024-02-15T22:11:42;7.82;;;4.65;;
24084;SDS011;12268;52.110;5.548;2024-02-15T22:14:08;8.77;;;4.32;;
24084;SDS011;12268;52.110;5.548;2024-02-15T22:16:33;8.23;;;4.13;;
24084;SDS011;12268;52.110;5.548;2024-02-15T22:18:59;8.27;;;4.50;;
24084;SDS011;12268;52.110;5.548;2024-02-15T22:21:25;11.57;;;4.55;;
24084;SDS011;12268;52.110;5.548;2024-02-15T22:23:51;8.32;;;4.22;;
24084;SDS011;12268;52.110;5.548;2024-02-15T22:26:17;10.85;;;4.40;;
24084;SDS011;12268;52.110;5.548;2024-02-15T22:28:44;7.22;;;4.70;;
24084;SDS011;12268;52.110;5.548;2024-02-15T22:31:19;7.18;;;4.80;;
24084;SDS011;12268;52.110;5.548;2024-02-15T22:33:46;8.43;;;4.68;;
24084;SDS011;12268;52.110;5.548;2024-02-15T22:36:23;8.27;;;4.97;;
24084;SDS011;12268;52.110;5.548;2024-02-15T22:38:50;6.82;;;4.75;;
24084;SDS011;12268;52.110;5.548;2024-02-15T22:41:16;7.57;;;4.60;;
24084;SDS011;12268;52.110;5.548;2024-02-15T22:43:42;11.02;;;5.35;;
24084;SDS011;12268;52.110;5.548;2024-02-15T22:46:09;9.18;;;4.60;;
24084;SDS011;12268;52.110;5.548;2024-02-15T22:48:35;6.07;;;4.30;;
24084;SDS011;12268;52.110;5.548;2024-02-15T22:51:03;9.35;;;5.25;;
24084;SDS011;12268;52.110;5.548;2024-02-15T22:53:30;8.07;;;5.32;;
24084;SDS011;12268;52.110;5.548;2024-02-15T22:55:57;8.63;;;5.38;;
24084;SDS011;12268;52.110;5.548;2024-02-15T22:58:23;11.88;;;5.50;;
24084;SDS011;12268;52.110;5.548;2024-02-15T23:00:49;9.32;;;5.10;;
24084;SDS011;12268;52.110;5.548;2024-02-15T23:03:15;10.23;;;5.45;;
24084;SDS011;12268;52.110;5.548;2024-02-15T23:05:41;8.55;;;5.55;;
24084;SDS011;12268;52.110;5.548;2024-02-15T23:08:07;8.48;;;5.20;;
24084;SDS011;12268;52.110;5.548;2024-02-15T23:10:33;11.45;;;5.50;;
24084;SDS011;12268;52.110;5.548;2024-02-15T23:12:59;9.70;;;5.60;;
24084;SDS011;12268;52.110;5.548;2024-02-15T23:15:26;9.40;;;5.88;;
24084;SDS011;12268;52.110;5.548;2024-02-15T23:17:52;12.63;;;5.85;;
24084;SDS011;12268;52.110;5.548;2024-02-15T23:20:18;12.30;;;6.07;;
24084;SDS011;12268;52.110;5.548;2024-02-15T23:22:43;9.82;;;5.20;;
24084;SDS011;12268;52.110;5.548;2024-02-15T23:25:09;11.32;;;5.63;;
24084;SDS011;12268;52.110;5.548;2024-02-15T23:27:36;9.32;;;5.93;;
24084;SDS011;12268;52.110;5.548;2024-02-15T23:30:03;10.88;;;6.32;;
24084;SDS011;12268;52.110;5.548;2024-02-15T23:32:32;9.55;;;5.93;;
24084;SDS011;12268;52.110;5.548;2024-02-15T23:35:01;12.80;;;6.32;;
24084;SDS011;12268;52.110;5.548;2024-02-15T23:40:32;9.20;;;6.57;;
24084;SDS011;12268;52.110;5.548;2024-02-15T23:42:58;13.10;;;6.97;;
24084;SDS011;12268;52.110;5.548;2024-02-15T23:45:23;10.15;;;6.45;;
24084;SDS011;12268;52.110;5.548;2024-02-15T23:47:50;12.73;;;6.47;;
24084;SDS011;12268;52.110;5.548;2024-02-15T23:50:16;10.15;;;6.30;;
24084;SDS011;12268;52.110;5.548;2024-02-15T23:52:45;7.63;;;6.03;;
24084;SDS011;12268;52.110;5.548;2024-02-15T23:55:11;8.52;;;6.47;;
24084;SDS011;12268;52.110;5.548;2024-02-15T23:57:39;12.15;;;6.20;;
